sensor_id;sensor_type;location;lat;lon;timestamp;P1;durP1;ratioP1;P2;durP2;ratioP2
71648;SDS011;70112;45.624;11.760;2024-03-02T00:02:14;12.20;;;3.30;;
71648;SDS011;70112;45.624;11.760;2024-03-02T00:04:40;13.60;;;3.10;;
71648;SDS011;70112;45.624;11.760;2024-03-02T00:07:06;7.90;;;2.80;;
71648;SDS011;70112;45.624;11.760;2024-03-02T00:09:32;8.80;;;3.30;;
71648;SDS011;70112;45.624;11.760;2024-03-02T00:12:00;7.50;;;3.10;;
71648;SDS011;70112;45.624;11.760;2024-03-02T00:14:25;7.90;;;2.90;;
71648;SDS011;70112;45.624;11.760;2024-03-02T00:16:55;11.90;;;3.20;;
71648;SDS011;70112;45.624;11.760;2024-03-02T00:19:21;10.80;;;3.10;;
71648;SDS011;70112;45.624;11.760;2024-03-02T00:21:47;7.60;;;3.50;;
71648;SDS011;70112;45.624;11.760;2024-03-02T00:24:26;7.40;;;3.30;;
71648;SDS011;70112;45.624;11.760;2024-03-02T00:26:59;9.50;;;3.60;;
71648;SDS011;70112;45.624;11.760;2024-03-02T00:29:26;9.60;;;3.00;;
71648;SDS011;70112;45.624;11.760;2024-03-02T00:31:53;10.40;;;3.40;;
71648;SDS011;70112;45.624;11.760;2024-03-02T00:34:19;9.50;;;3.00;;
71648;SDS011;70112;45.624;11.760;2024-03-02T00:36:44;8.10;;;3.10;;
71648;SDS011;70112;45.624;11.760;2024-03-02T00:39:12;7.60;;;2.90;;
71648;SDS011;70112;45.624;11.760;2024-03-02T00:41:41;15.90;;;3.20;;
71648;SDS011;70112;45.624;11.760;2024-03-02T00:44:12;13.20;;;3.90;;
71648;SDS011;70112;45.624;11.760;2024-03-02T00:46:39;10.90;;;4.20;;
71648;SDS011;70112;45.624;11.760;2024-03-02T00:51:36;10.80;;;3.50;;
71648;SDS011;70112;45.624;11.760;2024-03-02T00:54:05;8.40;;;3.00;;
71648;SDS011;70112;45.624;11.760;2024-03-02T00:56:33;8.60;;;3.20;;
71648;SDS011;70112;45.624;11.760;2024-03-02T00:59:00;9.70;;;3.30;;
71648;SDS011;70112;45.624;11.760;2024-03-02T01:01:25;8.60;;;3.60;;
71648;SDS011;70112;45.624;11.760;2024-03-02T01:03:51;10.20;;;3.30;;
71648;SDS011;70112;45.624;11.760;2024-03-02T01:06:18;10.00;;;2.70;;
71648;SDS011;70112;45.624;11.760;2024-03-02T01:08:43;7.70;;;2.80;;
71648;SDS011;70112;45.624;11.760;2024-03-02T01:11:09;9.30;;;3.20;;
71648;SDS011;70112;45.624;11.760;2024-03-02T01:13:34;10.70;;;3.10;;
71648;SDS011;70112;45.624;11.760;2024-03-02T01:16:00;9.30;;;3.40;;
71648;SDS011;70112;45.624;11.760;2024-03-02T01:18:26;9.00;;;3.30;;
71648;SDS011;70112;45.624;11.760;2024-03-02T01:20:52;8.30;;;3.60;;
71648;SDS011;70112;45.624;11.760;2024-03-02T01:23:23;9.60;;;3.60;;
71648;SDS011;70112;45.624;11.760;2024-03-02T01:25:50;8.80;;;3.70;;
71648;SDS011;70112;45.624;11.760;2024-03-02T01:28:16;7.00;;;3.10;;
71648;SDS011;70112;45.624;11.760;2024-03-02T01:30:42;9.40;;;3.40;;
71648;SDS011;70112;45.624;11.760;2024-03-02T01:33:08;9.80;;;2.70;;
71648;SDS011;70112;45.624;11.760;2024-03-02T01:35:33;10.80;;;3.40;;
71648;SDS011;70112;45.624;11.760;2024-03-02T01:38:00;12.00;;;2.80;;
71648;SDS011;70112;45.624;11.760;2024-03-02T01:40:26;9.70;;;2.60;;
71648;SDS011;70112;45.624;11.760;2024-03-02T01:42:53;11.10;;;3.60;;
71648;SDS011;70112;45.624;11.760;2024-03-02T01:45:23;8.90;;;3.10;;
71648;SDS011;70112;45.624;11.760;2024-03-02T01:47:49;9.80;;;4.10;;
71648;SDS011;70112;45.624;11.760;2024-03-02T01:50:16;10.00;;;3.10;;
71648;SDS011;70112;45.624;11.760;2024-03-02T01:52:50;9.40;;;3.30;;
71648;SDS011;70112;45.624;11.760;2024-03-02T01:55:15;13.20;;;2.90;;
71648;SDS011;70112;45.624;11.760;2024-03-02T01:57:41;9.90;;;3.00;;
71648;SDS011;70112;45.624;11.760;2024-03-02T02:00:07;8.80;;;2.70;;
71648;SDS011;70112;45.624;11.760;2024-03-02T02:02:33;7.30;;;2.70;;
71648;SDS011;70112;45.624;11.760;2024-03-02T02:04:59;11.60;;;2.90;;
71648;SDS011;70112;45.624;11.760;2024-03-02T02:07:24;8.20;;;3.10;;
71648;SDS011;70112;45.624;11.760;2024-03-02T02:09:50;9.00;;;3.10;;
71648;SDS011;70112;45.624;11.760;2024-03-02T02:12:16;8.00;;;2.90;;
71648;SDS011;70112;45.624;11.760;2024-03-02T02:14:47;11.00;;;3.10;;
71648;SDS011;70112;45.624;11.760;2024-03-02T02:17:14;9.00;;;2.50;;
71648;SDS011;70112;45.624;11.760;2024-03-02T02:19:40;7.40;;;2.70;;
71648;SDS011;70112;45.624;11.760;2024-03-02T02:22:06;7.20;;;2.30;;
71648;SDS011;70112;45.624;11.760;2024-03-02T02:24:32;8.00;;;2.90;;
71648;SDS011;70112;45.624;11.760;2024-03-02T02:26:57;7.90;;;2.60;;
71648;SDS011;70112;45.624;11.760;2024-03-02T02:29:23;10.80;;;2.70;;
71648;SDS011;70112;45.624;11.760;2024-03-02T02:31:48;9.70;;;2.40;;
71648;SDS011;70112;45.624;11.760;2024-03-02T02:34:14;9.20;;;2.50;;
71648;SDS011;70112;45.624;11.760;2024-03-02T02:36:41;6.60;;;2.40;;
71648;SDS011;70112;45.624;11.760;2024-03-02T02:39:10;10.30;;;2.60;;
71648;SDS011;70112;45.624;11.760;2024-03-02T02:41:38;7.70;;;2.50;;
71648;SDS011;70112;45.624;11.760;2024-03-02T02:44:04;9.30;;;4.00;;
71648;SDS011;70112;45.624;11.760;2024-03-02T02:46:30;10.30;;;2.80;;
71648;SDS011;70112;45.624;11.760;2024-03-02T02:48:55;6.50;;;2.70;;
71648;SDS011;70112;45.624;11.760;2024-03-02T02:51:21;6.90;;;3.80;;
71648;SDS011;70112;45.624;11.760;2024-03-02T02:53:46;9.00;;;3.10;;
71648;SDS011;70112;45.624;11.760;2024-03-02T02:56:12;10.60;;;3.20;;
71648;SDS011;70112;45.624;11.760;2024-03-02T02:58:37;8.00;;;2.30;;
71648;SDS011;70112;45.624;11.760;2024-03-02T03:01:03;8.30;;;3.10;;
71648;SDS011;70112;45.624;11.760;2024-03-02T03:03:29;6.10;;;2.50;;
71648;SDS011;70112;45.624;11.760;2024-03-02T03:05:54;8.70;;;2.90;;
71648;SDS011;70112;45.624;11.760;2024-03-02T03:08:20;10.00;;;2.50;;
71648;SDS011;70112;45.624;11.760;2024-03-02T03:10:45;11.30;;;2.70;;
71648;SDS011;70112;45.624;11.760;2024-03-02T03:13:11;11.50;;;2.90;;
71648;SDS011;70112;45.624;11.760;2024-03-02T03:15:37;4.90;;;2.50;;
71648;SDS011;70112;45.624;11.760;2024-03-02T03:18:06;10.50;;;4.00;;
71648;SDS011;70112;45.624;11.760;2024-03-02T03:20:33;12.50;;;3.10;;
71648;SDS011;70112;45.624;11.760;2024-03-02T03:22:59;7.50;;;2.80;;
71648;SDS011;70112;45.624;11.760;2024-03-02T03:25:25;13.90;;;3.30;;
71648;SDS011;70112;45.624;11.760;2024-03-02T03:27:51;11.00;;;2.90;;
71648;SDS011;70112;45.624;11.760;2024-03-02T03:30:19;11.90;;;3.00;;
71648;SDS011;70112;45.624;11.760;2024-03-02T03:32:44;11.50;;;3.10;;
71648;SDS011;70112;45.624;11.760;2024-03-02T03:35:10;8.80;;;2.90;;
71648;SDS011;70112;45.624;11.760;2024-03-02T03:37:37;7.50;;;2.80;;
71648;SDS011;70112;45.624;11.760;2024-03-02T03:40:03;7.10;;;2.70;;
71648;SDS011;70112;45.624;11.760;2024-03-02T03:42:38;6.00;;;2.40;;
71648;SDS011;70112;45.624;11.760;2024-03-02T03:45:04;6.70;;;2.70;;
71648;SDS011;70112;45.624;11.760;2024-03-02T03:47:32;6.70;;;2.80;;
71648;SDS011;70112;45.624;11.760;2024-03-02T03:49:57;10.80;;;2.60;;
71648;SDS011;70112;45.624;11.760;2024-03-02T03:52:23;11.60;;;3.70;;
71648;SDS011;70112;45.624;11.760;2024-03-02T03:54:49;6.50;;;2.60;;
71648;SDS011;70112;45.624;11.760;2024-03-02T03:57:14;9.40;;;3.30;;
71648;SDS011;70112;45.624;11.760;2024-03-02T03:59:40;6.20;;;2.50;;
71648;SDS011;70112;45.624;11.760;2024-03-02T04:02:05;8.70;;;2.40;;
71648;SDS011;70112;45.624;11.760;2024-03-02T04:04:31;6.80;;;2.80;;
71648;SDS011;70112;45.624;11.760;2024-03-02T04:06:56;10.10;;;3.10;;
71648;SDS011;70112;45.624;11.760;2024-03-02T04:09:22;7.60;;;2.90;;
71648;SDS011;70112;45.624;11.760;2024-03-02T04:11:47;8.20;;;2.70;;
71648;SDS011;70112;45.624;11.760;2024-03-02T04:14:13;6.10;;;2.60;;
71648;SDS011;70112;45.624;11.760;2024-03-02T04:16:38;7.80;;;2.60;;
71648;SDS011;70112;45.624;11.760;2024-03-02T04:19:04;9.80;;;2.50;;
71648;SDS011;70112;45.624;11.760;2024-03-02T04:21:30;5.80;;;2.50;;
71648;SDS011;70112;45.624;11.760;2024-03-02T04:23:56;9.00;;;3.20;;
71648;SDS011;70112;45.624;11.760;2024-03-02T04:26:25;7.40;;;2.40;;
71648;SDS011;70112;45.624;11.760;2024-03-02T04:28:53;6.20;;;2.60;;
71648;SDS011;70112;45.624;11.760;2024-03-02T04:31:19;9.70;;;2.50;;
71648;SDS011;70112;45.624;11.760;2024-03-02T04:33:45;7.30;;;3.00;;
71648;SDS011;70112;45.624;11.760;2024-03-02T04:36:11;10.50;;;3.00;;
71648;SDS011;70112;45.624;11.760;2024-03-02T04:38:38;9.80;;;3.20;;
71648;SDS011;70112;45.624;11.760;2024-03-02T04:41:05;7.00;;;2.60;;
71648;SDS011;70112;45.624;11.760;2024-03-02T04:43:32;5.40;;;2.70;;
71648;SDS011;70112;45.624;11.760;2024-03-02T04:45:59;10.80;;;3.70;;
71648;SDS011;70112;45.624;11.760;2024-03-02T04:48:25;6.80;;;2.90;;
71648;SDS011;70112;45.624;11.760;2024-03-02T04:50:50;7.70;;;3.00;;
71648;SDS011;70112;45.624;11.760;2024-03-02T04:53:16;6.20;;;3.30;;
71648;SDS011;70112;45.624;11.760;2024-03-02T04:55:42;8.70;;;2.80;;
71648;SDS011;70112;45.624;11.760;2024-03-02T04:58:08;7.60;;;2.90;;
71648;SDS011;70112;45.624;11.760;2024-03-02T05:00:34;6.00;;;3.60;;
71648;SDS011;70112;45.624;11.760;2024-03-02T05:03:00;8.20;;;2.70;;
71648;SDS011;70112;45.624;11.760;2024-03-02T05:05:26;7.80;;;3.00;;
71648;SDS011;70112;45.624;11.760;2024-03-02T05:07:52;11.60;;;3.10;;
71648;SDS011;70112;45.624;11.760;2024-03-02T05:10:18;9.80;;;3.30;;
71648;SDS011;70112;45.624;11.760;2024-03-02T05:12:43;10.10;;;3.70;;
71648;SDS011;70112;45.624;11.760;2024-03-02T05:15:13;10.60;;;3.10;;
71648;SDS011;70112;45.624;11.760;2024-03-02T05:17:40;10.40;;;3.30;;
71648;SDS011;70112;45.624;11.760;2024-03-02T05:20:08;8.50;;;2.90;;
71648;SDS011;70112;45.624;11.760;2024-03-02T05:22:34;9.40;;;2.90;;
71648;SDS011;70112;45.624;11.760;2024-03-02T05:25:01;6.50;;;3.50;;
71648;SDS011;70112;45.624;11.760;2024-03-02T05:27:27;9.90;;;3.30;;
71648;SDS011;70112;45.624;11.760;2024-03-02T05:29:53;6.20;;;2.50;;
71648;SDS011;70112;45.624;11.760;2024-03-02T05:32:19;9.20;;;2.90;;
71648;SDS011;70112;45.624;11.760;2024-03-02T05:34:44;8.70;;;3.10;;
71648;SDS011;70112;45.624;11.760;2024-03-02T05:37:10;6.90;;;2.80;;
71648;SDS011;70112;45.624;11.760;2024-03-02T05:39:35;13.50;;;3.00;;
71648;SDS011;70112;45.624;11.760;2024-03-02T05:42:01;8.30;;;2.90;;
71648;SDS011;70112;45.624;11.760;2024-03-02T05:44:26;9.50;;;2.80;;
71648;SDS011;70112;45.624;11.760;2024-03-02T05:46:52;6.40;;;2.90;;
71648;SDS011;70112;45.624;11.760;2024-03-02T05:49:17;8.10;;;3.20;;
71648;SDS011;70112;45.624;11.760;2024-03-02T05:51:43;10.40;;;3.50;;
71648;SDS011;70112;45.624;11.760;2024-03-02T05:54:08;11.10;;;3.00;;
71648;SDS011;70112;45.624;11.760;2024-03-02T05:56:35;4.50;;;2.70;;
71648;SDS011;70112;45.624;11.760;2024-03-02T05:59:00;9.80;;;3.40;;
71648;SDS011;70112;45.624;11.760;2024-03-02T06:01:45;8.50;;;3.60;;
71648;SDS011;70112;45.624;11.760;2024-03-02T06:04:12;6.50;;;2.90;;
71648;SDS011;70112;45.624;11.760;2024-03-02T06:06:38;7.40;;;3.30;;
71648;SDS011;70112;45.624;11.760;2024-03-02T06:09:05;7.60;;;3.00;;
71648;SDS011;70112;45.624;11.760;2024-03-02T06:11:35;7.90;;;3.20;;
71648;SDS011;70112;45.624;11.760;2024-03-02T06:14:01;5.90;;;3.40;;
71648;SDS011;70112;45.624;11.760;2024-03-02T06:16:27;6.40;;;2.90;;
71648;SDS011;70112;45.624;11.760;2024-03-02T06:18:53;8.40;;;3.20;;
71648;SDS011;70112;45.624;11.760;2024-03-02T06:21:20;6.70;;;3.80;;
71648;SDS011;70112;45.624;11.760;2024-03-02T06:23:45;8.50;;;3.90;;
71648;SDS011;70112;45.624;11.760;2024-03-02T06:26:11;10.90;;;4.30;;
71648;SDS011;70112;45.624;11.760;2024-03-02T06:28:37;9.00;;;4.40;;
71648;SDS011;70112;45.624;11.760;2024-03-02T06:31:03;10.70;;;4.00;;
71648;SDS011;70112;45.624;11.760;2024-03-02T06:33:29;5.70;;;3.40;;
71648;SDS011;70112;45.624;11.760;2024-03-02T06:35:55;10.70;;;4.30;;
71648;SDS011;70112;45.624;11.760;2024-03-02T06:38:20;6.90;;;3.70;;
71648;SDS011;70112;45.624;11.760;2024-03-02T06:40:46;5.10;;;3.10;;
71648;SDS011;70112;45.624;11.760;2024-03-02T06:43:11;7.10;;;3.50;;
71648;SDS011;70112;45.624;11.760;2024-03-02T06:45:37;9.40;;;4.10;;
71648;SDS011;70112;45.624;11.760;2024-03-02T06:48:03;8.40;;;4.50;;
71648;SDS011;70112;45.624;11.760;2024-03-02T06:50:29;7.70;;;3.80;;
71648;SDS011;70112;45.624;11.760;2024-03-02T06:52:55;7.90;;;4.40;;
71648;SDS011;70112;45.624;11.760;2024-03-02T06:55:23;11.40;;;4.00;;
71648;SDS011;70112;45.624;11.760;2024-03-02T06:57:52;54.90;;;7.20;;
71648;SDS011;70112;45.624;11.760;2024-03-02T07:00:19;11.70;;;4.10;;
71648;SDS011;70112;45.624;11.760;2024-03-02T07:02:45;14.60;;;3.70;;
71648;SDS011;70112;45.624;11.760;2024-03-02T07:05:11;8.80;;;3.60;;
71648;SDS011;70112;45.624;11.760;2024-03-02T07:07:37;5.20;;;3.50;;
71648;SDS011;70112;45.624;11.760;2024-03-02T07:10:06;12.80;;;4.40;;
71648;SDS011;70112;45.624;11.760;2024-03-02T07:12:35;7.40;;;4.00;;
71648;SDS011;70112;45.624;11.760;2024-03-02T07:15:02;11.00;;;3.80;;
71648;SDS011;70112;45.624;11.760;2024-03-02T07:17:28;5.50;;;3.30;;
71648;SDS011;70112;45.624;11.760;2024-03-02T07:19:54;8.70;;;3.70;;
71648;SDS011;70112;45.624;11.760;2024-03-02T07:22:20;6.00;;;4.30;;
71648;SDS011;70112;45.624;11.760;2024-03-02T07:24:45;8.00;;;3.70;;
71648;SDS011;70112;45.624;11.760;2024-03-02T07:27:12;8.10;;;3.60;;
71648;SDS011;70112;45.624;11.760;2024-03-02T07:29:39;8.20;;;3.70;;
71648;SDS011;70112;45.624;11.760;2024-03-02T07:32:06;11.00;;;4.00;;
71648;SDS011;70112;45.624;11.760;2024-03-02T07:34:32;6.80;;;3.60;;
71648;SDS011;70112;45.624;11.760;2024-03-02T07:36:58;6.70;;;3.80;;
71648;SDS011;70112;45.624;11.760;2024-03-02T07:39:24;10.50;;;3.70;;
71648;SDS011;70112;45.624;11.760;2024-03-02T07:41:50;22.80;;;5.80;;
71648;SDS011;70112;45.624;11.760;2024-03-02T07:44:16;10.10;;;3.80;;
71648;SDS011;70112;45.624;11.760;2024-03-02T07:46:45;7.30;;;3.60;;
71648;SDS011;70112;45.624;11.760;2024-03-02T07:49:20;9.70;;;4.10;;
71648;SDS011;70112;45.624;11.760;2024-03-02T07:51:46;7.40;;;3.50;;
71648;SDS011;70112;45.624;11.760;2024-03-02T07:54:11;7.30;;;3.90;;
71648;SDS011;70112;45.624;11.760;2024-03-02T07:56:37;7.10;;;3.10;;
71648;SDS011;70112;45.624;11.760;2024-03-02T07:59:03;7.70;;;3.30;;
71648;SDS011;70112;45.624;11.760;2024-03-02T08:01:30;9.80;;;3.60;;
71648;SDS011;70112;45.624;11.760;2024-03-02T08:04:00;4.70;;;2.50;;
71648;SDS011;70112;45.624;11.760;2024-03-02T08:06:27;6.00;;;3.20;;
71648;SDS011;70112;45.624;11.760;2024-03-02T08:08:57;6.60;;;3.10;;
71648;SDS011;70112;45.624;11.760;2024-03-02T08:11:23;6.10;;;3.20;;
71648;SDS011;70112;45.624;11.760;2024-03-02T08:13:49;4.80;;;3.30;;
71648;SDS011;70112;45.624;11.760;2024-03-02T08:16:16;7.90;;;3.50;;
71648;SDS011;70112;45.624;11.760;2024-03-02T08:18:45;12.90;;;5.40;;
71648;SDS011;70112;45.624;11.760;2024-03-02T08:21:12;7.00;;;3.10;;
71648;SDS011;70112;45.624;11.760;2024-03-02T08:23:38;7.10;;;3.20;;
71648;SDS011;70112;45.624;11.760;2024-03-02T08:26:06;9.50;;;3.60;;
71648;SDS011;70112;45.624;11.760;2024-03-02T08:28:32;7.40;;;3.30;;
71648;SDS011;70112;45.624;11.760;2024-03-02T08:30:58;6.60;;;3.50;;
71648;SDS011;70112;45.624;11.760;2024-03-02T08:33:23;7.20;;;3.00;;
71648;SDS011;70112;45.624;11.760;2024-03-02T08:35:49;9.10;;;3.60;;
71648;SDS011;70112;45.624;11.760;2024-03-02T08:38:15;7.40;;;3.20;;
71648;SDS011;70112;45.624;11.760;2024-03-02T08:40:40;5.40;;;3.00;;
71648;SDS011;70112;45.624;11.760;2024-03-02T08:43:06;7.60;;;3.50;;
71648;SDS011;70112;45.624;11.760;2024-03-02T08:45:32;8.60;;;3.40;;
71648;SDS011;70112;45.624;11.760;2024-03-02T08:47:59;5.10;;;3.30;;
71648;SDS011;70112;45.624;11.760;2024-03-02T08:50:24;4.90;;;3.10;;
71648;SDS011;70112;45.624;11.760;2024-03-02T08:52:50;5.20;;;3.40;;
71648;SDS011;70112;45.624;11.760;2024-03-02T08:55:15;8.50;;;3.30;;
71648;SDS011;70112;45.624;11.760;2024-03-02T08:57:41;4.90;;;3.10;;
71648;SDS011;70112;45.624;11.760;2024-03-02T09:00:07;6.80;;;3.30;;
71648;SDS011;70112;45.624;11.760;2024-03-02T09:02:33;4.30;;;3.00;;
71648;SDS011;70112;45.624;11.760;2024-03-02T09:04:59;7.10;;;3.00;;
71648;SDS011;70112;45.624;11.760;2024-03-02T09:07:25;9.80;;;3.00;;
71648;SDS011;70112;45.624;11.760;2024-03-02T09:09:50;5.50;;;2.90;;
71648;SDS011;70112;45.624;11.760;2024-03-02T09:12:18;4.80;;;2.90;;
71648;SDS011;70112;45.624;11.760;2024-03-02T09:14:44;7.50;;;3.80;;
71648;SDS011;70112;45.624;11.760;2024-03-02T09:17:10;9.00;;;3.40;;
71648;SDS011;70112;45.624;11.760;2024-03-02T09:19:36;4.30;;;3.20;;
71648;SDS011;70112;45.624;11.760;2024-03-02T09:22:02;9.80;;;3.80;;
71648;SDS011;70112;45.624;11.760;2024-03-02T09:24:28;7.00;;;3.30;;
71648;SDS011;70112;45.624;11.760;2024-03-02T09:26:54;5.30;;;3.40;;
71648;SDS011;70112;45.624;11.760;2024-03-02T09:29:19;7.70;;;3.80;;
71648;SDS011;70112;45.624;11.760;2024-03-02T09:31:45;6.30;;;3.20;;
71648;SDS011;70112;45.624;11.760;2024-03-02T09:34:12;7.50;;;3.30;;
71648;SDS011;70112;45.624;11.760;2024-03-02T09:36:37;7.30;;;3.20;;
71648;SDS011;70112;45.624;11.760;2024-03-02T09:39:03;6.60;;;3.00;;
71648;SDS011;70112;45.624;11.760;2024-03-02T09:41:29;6.80;;;3.10;;
71648;SDS011;70112;45.624;11.760;2024-03-02T09:43:55;4.80;;;3.00;;
71648;SDS011;70112;45.624;11.760;2024-03-02T09:46:20;5.60;;;2.90;;
71648;SDS011;70112;45.624;11.760;2024-03-02T09:48:46;6.70;;;3.40;;
71648;SDS011;70112;45.624;11.760;2024-03-02T09:51:11;11.40;;;3.10;;
71648;SDS011;70112;45.624;11.760;2024-03-02T09:53:38;5.00;;;3.00;;
71648;SDS011;70112;45.624;11.760;2024-03-02T09:56:04;5.50;;;3.30;;
71648;SDS011;70112;45.624;11.760;2024-03-02T09:58:30;5.20;;;2.90;;
71648;SDS011;70112;45.624;11.760;2024-03-02T10:00:56;7.30;;;3.80;;
71648;SDS011;70112;45.624;11.760;2024-03-02T10:03:24;7.30;;;4.60;;
71648;SDS011;70112;45.624;11.760;2024-03-02T10:05:52;8.20;;;4.80;;
71648;SDS011;70112;45.624;11.760;2024-03-02T10:08:17;6.80;;;3.90;;
71648;SDS011;70112;45.624;11.760;2024-03-02T10:10:43;6.50;;;3.60;;
71648;SDS011;70112;45.624;11.760;2024-03-02T10:13:13;5.30;;;3.10;;
71648;SDS011;70112;45.624;11.760;2024-03-02T10:15:40;5.80;;;3.30;;
71648;SDS011;70112;45.624;11.760;2024-03-02T10:18:13;6.30;;;3.30;;
71648;SDS011;70112;45.624;11.760;2024-03-02T10:20:40;6.20;;;3.20;;
71648;SDS011;70112;45.624;11.760;2024-03-02T10:23:14;7.60;;;4.70;;
71648;SDS011;70112;45.624;11.760;2024-03-02T10:25:41;8.60;;;3.00;;
71648;SDS011;70112;45.624;11.760;2024-03-02T10:28:07;6.00;;;3.50;;
71648;SDS011;70112;45.624;11.760;2024-03-02T10:30:33;6.00;;;3.70;;
71648;SDS011;70112;45.624;11.760;2024-03-02T10:33:01;7.90;;;3.50;;
71648;SDS011;70112;45.624;11.760;2024-03-02T10:35:27;8.00;;;3.50;;
71648;SDS011;70112;45.624;11.760;2024-03-02T10:37:53;8.30;;;3.90;;
71648;SDS011;70112;45.624;11.760;2024-03-02T10:40:22;6.20;;;3.70;;
71648;SDS011;70112;45.624;11.760;2024-03-02T10:42:49;6.90;;;4.20;;
71648;SDS011;70112;45.624;11.760;2024-03-02T10:45:17;5.20;;;3.80;;
71648;SDS011;70112;45.624;11.760;2024-03-02T10:47:46;4.90;;;3.80;;
71648;SDS011;70112;45.624;11.760;2024-03-02T10:50:12;4.80;;;4.20;;
71648;SDS011;70112;45.624;11.760;2024-03-02T10:52:38;8.90;;;4.50;;
71648;SDS011;70112;45.624;11.760;2024-03-02T10:55:08;7.80;;;4.10;;
71648;SDS011;70112;45.624;11.760;2024-03-02T10:57:54;5.70;;;4.10;;
71648;SDS011;70112;45.624;11.760;2024-03-02T11:00:24;6.20;;;3.80;;
71648;SDS011;70112;45.624;11.760;2024-03-02T11:03:09;7.60;;;4.50;;
71648;SDS011;70112;45.624;11.760;2024-03-02T11:05:38;7.20;;;4.10;;
71648;SDS011;70112;45.624;11.760;2024-03-02T11:08:07;7.40;;;3.80;;
71648;SDS011;70112;45.624;11.760;2024-03-02T11:10:36;7.80;;;4.00;;
71648;SDS011;70112;45.624;11.760;2024-03-02T11:13:09;9.40;;;4.10;;
71648;SDS011;70112;45.624;11.760;2024-03-02T11:15:35;8.60;;;5.20;;
71648;SDS011;70112;45.624;11.760;2024-03-02T11:18:05;8.90;;;4.40;;
71648;SDS011;70112;45.624;11.760;2024-03-02T11:20:38;8.80;;;4.80;;
71648;SDS011;70112;45.624;11.760;2024-03-02T11:23:08;9.90;;;4.40;;
71648;SDS011;70112;45.624;11.760;2024-03-02T11:25:35;9.10;;;4.90;;
71648;SDS011;70112;45.624;11.760;2024-03-02T11:28:02;7.70;;;4.50;;
71648;SDS011;70112;45.624;11.760;2024-03-02T11:33:06;7.10;;;4.30;;
71648;SDS011;70112;45.624;11.760;2024-03-02T11:35:41;7.50;;;4.70;;
71648;SDS011;70112;45.624;11.760;2024-03-02T11:38:13;5.50;;;4.20;;
71648;SDS011;70112;45.624;11.760;2024-03-02T11:40:40;7.10;;;3.60;;
71648;SDS011;70112;45.624;11.760;2024-03-02T11:43:06;6.90;;;3.90;;
71648;SDS011;70112;45.624;11.760;2024-03-02T11:45:36;6.90;;;4.10;;
71648;SDS011;70112;45.624;11.760;2024-03-02T11:48:05;4.60;;;3.80;;
71648;SDS011;70112;45.624;11.760;2024-03-02T11:50:39;5.20;;;3.40;;
71648;SDS011;70112;45.624;11.760;2024-03-02T11:53:08;9.20;;;4.30;;
71648;SDS011;70112;45.624;11.760;2024-03-02T11:55:35;7.50;;;4.20;;
71648;SDS011;70112;45.624;11.760;2024-03-02T11:58:04;6.10;;;3.60;;
71648;SDS011;70112;45.624;11.760;2024-03-02T12:00:30;7.70;;;4.10;;
71648;SDS011;70112;45.624;11.760;2024-03-02T12:03:04;6.10;;;4.40;;
71648;SDS011;70112;45.624;11.760;2024-03-02T12:05:32;6.90;;;4.20;;
71648;SDS011;70112;45.624;11.760;2024-03-02T12:07:59;6.30;;;4.50;;
71648;SDS011;70112;45.624;11.760;2024-03-02T12:10:26;6.00;;;3.80;;
71648;SDS011;70112;45.624;11.760;2024-03-02T12:13:05;7.30;;;4.00;;
71648;SDS011;70112;45.624;11.760;2024-03-02T12:15:33;6.90;;;4.30;;
71648;SDS011;70112;45.624;11.760;2024-03-02T12:18:01;5.00;;;3.90;;
71648;SDS011;70112;45.624;11.760;2024-03-02T12:20:28;6.70;;;5.00;;
71648;SDS011;70112;45.624;11.760;2024-03-02T12:22:57;7.50;;;4.50;;
71648;SDS011;70112;45.624;11.760;2024-03-02T12:25:24;8.30;;;4.40;;
71648;SDS011;70112;45.624;11.760;2024-03-02T12:27:53;7.90;;;4.40;;
71648;SDS011;70112;45.624;11.760;2024-03-02T12:30:20;8.00;;;4.40;;
71648;SDS011;70112;45.624;11.760;2024-03-02T12:32:47;7.30;;;4.90;;
71648;SDS011;70112;45.624;11.760;2024-03-02T12:35:13;6.50;;;4.80;;
71648;SDS011;70112;45.624;11.760;2024-03-02T12:37:45;12.40;;;4.00;;
71648;SDS011;70112;45.624;11.760;2024-03-02T12:40:13;6.40;;;4.90;;
71648;SDS011;70112;45.624;11.760;2024-03-02T12:42:40;7.10;;;4.20;;
71648;SDS011;70112;45.624;11.760;2024-03-02T12:45:08;8.60;;;4.70;;
71648;SDS011;70112;45.624;11.760;2024-03-02T12:47:34;5.30;;;3.70;;
71648;SDS011;70112;45.624;11.760;2024-03-02T12:50:01;3.90;;;3.10;;
71648;SDS011;70112;45.624;11.760;2024-03-02T12:52:27;6.40;;;2.60;;
71648;SDS011;70112;45.624;11.760;2024-03-02T12:54:53;3.30;;;2.80;;
71648;SDS011;70112;45.624;11.760;2024-03-02T12:57:25;5.50;;;3.10;;
71648;SDS011;70112;45.624;11.760;2024-03-02T12:59:56;6.00;;;3.40;;
71648;SDS011;70112;45.624;11.760;2024-03-02T13:02:23;4.50;;;3.20;;
71648;SDS011;70112;45.624;11.760;2024-03-02T13:04:53;4.00;;;2.90;;
71648;SDS011;70112;45.624;11.760;2024-03-02T13:09:52;4.40;;;3.30;;
71648;SDS011;70112;45.624;11.760;2024-03-02T13:12:21;4.60;;;3.20;;
71648;SDS011;70112;45.624;11.760;2024-03-02T13:14:53;4.70;;;3.10;;
71648;SDS011;70112;45.624;11.760;2024-03-02T13:17:19;2.90;;;2.40;;
71648;SDS011;70112;45.624;11.760;2024-03-02T13:19:56;3.00;;;2.30;;
71648;SDS011;70112;45.624;11.760;2024-03-02T13:22:23;4.80;;;2.70;;
71648;SDS011;70112;45.624;11.760;2024-03-02T13:24:49;4.70;;;2.40;;
71648;SDS011;70112;45.624;11.760;2024-03-02T13:27:16;2.90;;;2.20;;
71648;SDS011;70112;45.624;11.760;2024-03-02T13:29:45;4.50;;;2.10;;
71648;SDS011;70112;45.624;11.760;2024-03-02T13:32:12;2.70;;;2.00;;
71648;SDS011;70112;45.624;11.760;2024-03-02T13:34:38;2.80;;;2.20;;
71648;SDS011;70112;45.624;11.760;2024-03-02T13:37:04;3.50;;;2.20;;
71648;SDS011;70112;45.624;11.760;2024-03-02T13:39:31;3.30;;;2.20;;
71648;SDS011;70112;45.624;11.760;2024-03-02T13:42:00;5.60;;;2.60;;
71648;SDS011;70112;45.624;11.760;2024-03-02T13:44:31;4.50;;;3.00;;
71648;SDS011;70112;45.624;11.760;2024-03-02T13:46:56;4.90;;;2.80;;
71648;SDS011;70112;45.624;11.760;2024-03-02T13:49:23;4.50;;;3.10;;
71648;SDS011;70112;45.624;11.760;2024-03-02T13:51:49;3.80;;;2.80;;
71648;SDS011;70112;45.624;11.760;2024-03-02T13:54:15;3.60;;;2.70;;
71648;SDS011;70112;45.624;11.760;2024-03-02T13:56:40;4.50;;;3.10;;
71648;SDS011;70112;45.624;11.760;2024-03-02T13:59:07;6.50;;;3.30;;
71648;SDS011;70112;45.624;11.760;2024-03-02T14:01:33;5.20;;;4.10;;
71648;SDS011;70112;45.624;11.760;2024-03-02T14:03:58;5.80;;;4.00;;
71648;SDS011;70112;45.624;11.760;2024-03-02T14:06:24;8.20;;;4.60;;
71648;SDS011;70112;45.624;11.760;2024-03-02T14:08:52;6.10;;;4.10;;
71648;SDS011;70112;45.624;11.760;2024-03-02T14:11:18;4.70;;;3.70;;
71648;SDS011;70112;45.624;11.760;2024-03-02T14:13:44;6.40;;;3.90;;
71648;SDS011;70112;45.624;11.760;2024-03-02T14:16:14;5.70;;;4.00;;
71648;SDS011;70112;45.624;11.760;2024-03-02T14:18:41;5.60;;;3.50;;
71648;SDS011;70112;45.624;11.760;2024-03-02T14:21:07;4.40;;;3.30;;
71648;SDS011;70112;45.624;11.760;2024-03-02T14:23:33;4.40;;;3.20;;
71648;SDS011;70112;45.624;11.760;2024-03-02T14:25:59;5.10;;;3.70;;
71648;SDS011;70112;45.624;11.760;2024-03-02T14:28:25;5.30;;;3.50;;
71648;SDS011;70112;45.624;11.760;2024-03-02T14:30:50;6.50;;;4.00;;
71648;SDS011;70112;45.624;11.760;2024-03-02T14:33:16;7.40;;;4.40;;
71648;SDS011;70112;45.624;11.760;2024-03-02T14:35:42;7.30;;;4.60;;
71648;SDS011;70112;45.624;11.760;2024-03-02T14:38:07;6.40;;;4.90;;
71648;SDS011;70112;45.624;11.760;2024-03-02T14:40:33;7.50;;;4.90;;